Time;durP1;ratioP1;P1;durP2;ratioP2;P2;SDS_P1;SDS_P2;PMS_P1;PMS_P2;Temp;Humidity;BMP_temperature;BMP_pressure;BME280_temperature;BME280_humidity;BME280_pressure;Samples;Min_cycle;Max_cycle;Signal;HPM_P1;HPM_P2
2021/07/18 00:01:38;;;;;;;4.60;4.20;;;21.20;99.90;;;;;;5092094;28;20224;-69
2021/07/18 00:04:05;;;;;;;4.93;4.43;;;21.20;99.90;;;;;;5092629;28;20201;-70
2021/07/18 00:06:32;;;;;;;5.40;3.95;;;21.20;99.90;;;;;;5092330;28;20206;-69
2021/07/18 00:08:59;;;;;;;3.58;3.28;;;21.20;99.90;;;;;;5092007;28;20705;-70
2021/07/18 00:11:27;;;;;;;4.30;3.90;;;21.10;99.90;;;;;;5092549;28;20209;-72
2021/07/18 00:13:54;;;;;;;3.95;3.65;;;21.10;99.90;;;;;;5065660;28;20202;-71
2021/07/18 00:16:21;;;;;;;4.05;3.42;;;21.20;99.90;;;;;;5091940;28;20209;-70
2021/07/18 00:18:48;;;;;;;5.93;4.30;;;21.20;99.90;;;;;;5091676;28;20239;-72
2021/07/18 00:21:15;;;;;;;4.20;3.53;;;21.30;99.90;;;;;;5091760;28;20259;-71
2021/07/18 00:23:42;;;;;;;5.50;4.47;;;21.30;99.90;;;;;;5091775;28;20202;-71
2021/07/18 00:26:09;;;;;;;4.63;4.22;;;21.20;99.90;;;;;;5091930;28;20654;-71
2021/07/18 00:28:38;;;;;;;4.07;3.67;;;21.20;99.90;;;;;;5091641;28;20679;-70
2021/07/18 00:31:04;;;;;;;4.65;4.25;;;21.20;99.90;;;;;;5092158;28;20202;-71
2021/07/18 00:33:31;;;;;;;4.88;4.43;;;21.20;99.90;;;;;;5092450;28;20621;-69
2021/07/18 00:35:58;;;;;;;3.65;3.35;;;21.10;99.90;;;;;;5091616;28;20614;-73
2021/07/18 00:38:25;;;;;;;4.50;4.10;;;21.10;99.90;;;;;;5091731;28;20640;-73
2021/07/18 00:40:52;;;;;;;4.57;4.13;;;21.10;99.90;;;;;;5091004;28;20206;-72
2021/07/18 00:43:19;;;;;;;6.07;4.18;;;21.10;99.90;;;;;;5091502;28;20722;-72
2021/07/18 00:45:48;;;;;;;3.90;3.50;;;21.00;99.90;;;;;;5090856;28;20206;-72
2021/07/18 00:48:15;;;;;;;5.43;4.47;;;21.00;99.90;;;;;;5091318;28;20282;-73
2021/07/18 00:50:43;;;;;;;4.75;3.90;;;21.00;99.90;;;;;;5091155;28;20201;-69
2021/07/18 00:53:11;;;;;;;5.00;4.57;;;21.00;99.90;;;;;;5091603;28;20237;-71
2021/07/18 00:55:42;;;;;;;4.10;3.33;;;20.90;99.90;;;;;;5091005;28;20684;-73
2021/07/18 00:58:10;;;;;;;4.82;4.47;;;20.90;99.90;;;;;;5090999;28;20579;-71
2021/07/18 01:00:37;;;;;;;5.97;4.43;;;20.90;99.90;;;;;;5091233;28;20205;-71
2021/07/18 01:03:07;;;;;;;6.70;5.07;;;20.80;99.90;;;;;;5090925;28;20224;-70
2021/07/18 01:05:34;;;;;;;5.00;4.60;;;20.70;99.90;;;;;;5091871;28;20258;-71
2021/07/18 01:08:01;;;;;;;5.80;4.97;;;20.60;99.90;;;;;;5091273;28;20212;-71
2021/07/18 01:10:29;;;;;;;5.28;4.82;;;20.40;99.90;;;;;;5091219;28;20247;-71
2021/07/18 01:12:56;;;;;;;5.28;4.13;;;20.40;99.90;;;;;;5090406;28;20254;-70
2021/07/18 01:15:24;;;;;;;8.23;5.32;;;20.30;99.90;;;;;;5091341;28;20263;-70
2021/07/18 01:17:51;;;;;;;4.25;3.95;;;20.20;99.90;;;;;;5090387;28;20722;-71
2021/07/18 01:20:21;;;;;;;5.43;4.90;;;20.10;99.90;;;;;;5077208;28;20257;-70
2021/07/18 01:22:50;;;;;;;5.75;4.47;;;20.20;99.90;;;;;;5090980;28;20209;-71
2021/07/18 01:25:17;;;;;;;5.60;5.10;;;20.20;99.90;;;;;;5090634;28;20681;-70
2021/07/18 01:27:44;;;;;;;5.38;4.85;;;20.20;99.90;;;;;;5090460;28;20209;-72
2021/07/18 01:30:14;;;;;;;4.35;3.95;;;20.10;99.90;;;;;;5090750;28;20225;-71
2021/07/18 01:32:42;;;;;;;5.07;4.63;;;20.20;99.90;;;;;;5090221;28;20205;-71
2021/07/18 01:35:11;;;;;;;6.00;5.50;;;20.20;99.90;;;;;;5090839;28;20213;-70
2021/07/18 01:37:38;;;;;;;5.32;4.82;;;20.20;99.90;;;;;;5090805;28;20283;-71
2021/07/18 01:40:08;;;;;;;4.65;4.32;;;20.10;99.90;;;;;;5090775;28;20743;-69
2021/07/18 01:42:36;;;;;;;5.43;5.03;;;20.00;99.90;;;;;;5090926;28;20251;-71
2021/07/18 01:45:04;;;;;;;6.30;5.63;;;20.10;99.90;;;;;;5091148;28;20724;-70
2021/07/18 01:47:31;;;;;;;6.07;4.47;;;20.00;99.90;;;;;;5090649;28;20236;-71
2021/07/18 01:49:58;;;;;;;6.60;5.18;;;20.00;99.90;;;;;;5090105;28;20650;-71
2021/07/18 01:52:25;;;;;;;6.07;4.70;;;20.00;99.90;;;;;;5090283;28;20718;-70
2021/07/18 01:54:55;;;;;;;6.40;4.40;;;20.00;99.90;;;;;;5090032;28;20205;-70
2021/07/18 01:57:24;;;;;;;5.82;4.68;;;20.10;99.90;;;;;;5090568;28;20289;-69
2021/07/18 01:59:51;;;;;;;4.93;4.50;;;20.00;99.90;;;;;;5090297;28;20243;-70
2021/07/18 02:02:18;;;;;;;5.30;4.80;;;20.00;99.90;;;;;;5090357;28;20213;-71
2021/07/18 02:04:47;;;;;;;6.55;4.88;;;19.90;99.90;;;;;;5090170;28;20262;-70
2021/07/18 02:07:16;;;;;;;4.95;4.55;;;19.80;99.90;;;;;;5090549;28;20213;-71
2021/07/18 02:09:43;;;;;;;4.82;4.38;;;19.70;99.90;;;;;;5090140;28;20239;-70
2021/07/18 02:12:10;;;;;;;5.60;5.05;;;19.70;99.90;;;;;;5090760;28;20206;-71
2021/07/18 02:14:40;;;;;;;5.53;5.03;;;19.60;99.90;;;;;;5090021;28;20251;-71
2021/07/18 02:17:07;;;;;;;5.03;4.60;;;19.60;99.90;;;;;;5090469;28;20201;-70
2021/07/18 02:19:35;;;;;;;5.65;5.15;;;19.60;99.90;;;;;;5090234;28;20255;-70
2021/07/18 02:22:02;;;;;;;5.60;4.95;;;19.50;99.90;;;;;;5090885;28;20198;-71
2021/07/18 02:24:29;;;;;;;6.63;5.22;;;19.30;99.90;;;;;;5090469;28;20209;-69
2021/07/18 02:26:57;;;;;;;6.90;5.65;;;19.30;99.90;;;;;;5089746;28;20201;-70
2021/07/18 02:29:24;;;;;;;6.78;5.25;;;19.40;99.90;;;;;;5090180;28;20278;-69
2021/07/18 02:31:53;;;;;;;6.03;5.53;;;19.40;99.90;;;;;;5089756;28;20255;-70
2021/07/18 02:34:20;;;;;;;5.85;5.32;;;19.40;99.90;;;;;;5090311;28;20251;-70
2021/07/18 02:36:47;;;;;;;5.93;4.25;;;19.40;99.90;;;;;;5089784;28;20210;-71
2021/07/18 02:39:15;;;;;;;5.82;5.18;;;19.40;99.90;;;;;;5090360;28;20205;-72
2021/07/18 02:41:43;;;;;;;7.95;5.03;;;19.40;99.90;;;;;;5089791;28;20209;-72
2021/07/18 02:44:10;;;;;;;6.38;5.80;;;19.40;99.90;;;;;;5089795;28;20202;-72
2021/07/18 02:46:37;;;;;;;9.80;6.43;;;19.30;99.90;;;;;;5089672;28;20209;-70
2021/07/18 02:49:05;;;;;;;5.28;4.68;;;19.30;99.90;;;;;;5090248;28;20228;-69
2021/07/18 02:51:32;;;;;;;4.93;4.43;;;19.40;99.90;;;;;;5090566;28;20205;-70
2021/07/18 02:53:59;;;;;;;4.88;4.35;;;19.50;99.90;;;;;;5089737;28;20206;-69
2021/07/18 02:56:26;;;;;;;5.82;4.72;;;19.40;99.90;;;;;;5090145;28;20213;-68
2021/07/18 02:58:53;;;;;;;5.68;4.93;;;19.40;99.90;;;;;;5089154;28;20243;-70
2021/07/18 03:01:20;;;;;;;4.75;4.35;;;19.40;99.90;;;;;;5089948;28;20205;-72
2021/07/18 03:03:48;;;;;;;6.47;5.53;;;19.40;99.90;;;;;;5089785;28;20251;-71
2021/07/18 03:06:17;;;;;;;5.82;5.18;;;19.40;99.90;;;;;;5091722;28;20292;-71
2021/07/18 03:08:44;;;;;;;5.57;5.07;;;19.30;99.90;;;;;;5093283;28;20262;-69
2021/07/18 03:11:11;;;;;;;5.45;4.95;;;19.20;99.90;;;;;;5093392;28;20270;-68
2021/07/18 03:13:38;;;;;;;6.55;5.78;;;19.10;99.90;;;;;;5092928;28;20209;-69
2021/07/18 03:16:05;;;;;;;6.07;5.47;;;19.10;99.90;;;;;;5093740;28;20209;-68
2021/07/18 03:18:32;;;;;;;5.45;4.95;;;19.10;99.90;;;;;;5093684;28;20249;-70
2021/07/18 03:20:59;;;;;;;5.55;5.05;;;19.10;99.90;;;;;;5092828;28;20329;-71
2021/07/18 03:23:28;;;;;;;8.20;6.07;;;19.10;99.90;;;;;;5093204;28;20255;-71
2021/07/18 03:25:55;;;;;;;7.80;5.68;;;19.00;99.90;;;;;;5092711;28;20213;-70
2021/07/18 03:28:23;;;;;;;6.35;5.75;;;19.00;99.90;;;;;;5092589;28;20591;-68
2021/07/18 03:30:50;;;;;;;6.93;6.25;;;19.00;99.90;;;;;;5092755;28;20701;-68
2021/07/18 03:33:17;;;;;;;5.32;4.93;;;19.00;99.90;;;;;;5093022;28;20698;-68
2021/07/18 03:35:44;;;;;;;5.80;5.30;;;19.00;99.90;;;;;;5064983;28;20222;-68
2021/07/18 03:38:11;;;;;;;5.95;5.43;;;18.90;99.90;;;;;;5093107;28;20206;-68
2021/07/18 03:40:40;;;;;;;5.88;5.32;;;18.90;99.90;;;;;;5092504;28;20209;-68
2021/07/18 03:43:07;;;;;;;5.95;5.45;;;19.00;99.90;;;;;;5092834;28;20221;-69
2021/07/18 03:45:34;;;;;;;6.18;5.68;;;18.90;99.90;;;;;;5093100;28;20197;-71
2021/07/18 03:48:01;;;;;;;5.85;5.20;;;18.80;99.90;;;;;;5093438;28;20266;-71
2021/07/18 03:50:28;;;;;;;5.55;5.05;;;18.80;99.90;;;;;;5092715;28;20229;-69
2021/07/18 03:52:55;;;;;;;6.75;6.05;;;18.90;99.90;;;;;;5092543;28;20213;-69
2021/07/18 03:55:22;;;;;;;7.07;5.95;;;18.90;99.90;;;;;;5092516;28;20644;-68
2021/07/18 03:57:50;;;;;;;6.75;6.10;;;18.90;99.90;;;;;;5092227;28;20246;-69
2021/07/18 04:00:17;;;;;;;6.35;5.78;;;18.80;99.90;;;;;;5092590;28;20255;-71
2021/07/18 04:02:45;;;;;;;7.00;5.75;;;18.80;99.90;;;;;;5091912;28;20235;-71
2021/07/18 04:05:12;;;;;;;6.47;5.93;;;18.80;99.90;;;;;;5092530;28;20210;-72
2021/07/18 04:07:39;;;;;;;5.93;5.25;;;18.80;99.90;;;;;;5091937;28;20649;-71
2021/07/18 04:10:07;;;;;;;6.70;5.43;;;18.80;99.90;;;;;;5092181;28;20604;-69
2021/07/18 04:12:34;;;;;;;5.72;5.22;;;18.80;99.90;;;;;;5092233;28;20205;-70
2021/07/18 04:15:03;;;;;;;6.25;5.10;;;18.70;99.90;;;;;;5092573;28;20233;-70
2021/07/18 04:17:30;;;;;;;6.82;6.20;;;18.70;99.90;;;;;;5091871;28;20266;-69
2021/07/18 04:19:57;;;;;;;6.18;5.40;;;18.70;99.90;;;;;;5077650;28;20672;-69
2021/07/18 04:22:24;;;;;;;6.60;6.03;;;18.60;99.90;;;;;;5091802;28;20566;-69
2021/07/18 04:24:51;;;;;;;6.32;5.72;;;18.60;99.90;;;;;;5091721;28;20267;-69
2021/07/18 04:27:19;;;;;;;5.45;4.93;;;18.60;99.90;;;;;;5091607;28;20615;-69
2021/07/18 04:29:46;;;;;;;6.63;5.82;;;18.50;99.90;;;;;;5091900;28;20649;-68
2021/07/18 04:32:14;;;;;;;7.20;6.32;;;18.50;99.90;;;;;;5091628;28;20201;-69
2021/07/18 04:34:43;;;;;;;7.00;5.82;;;18.60;99.90;;;;;;5091545;28;20205;-69
2021/07/18 04:37:10;;;;;;;6.68;6.07;;;18.60;99.90;;;;;;5091827;28;20251;-69
2021/07/18 04:39:37;;;;;;;8.82;5.95;;;18.60;99.90;;;;;;5091512;28;20255;-69
2021/07/18 04:42:05;;;;;;;7.82;7.10;;;18.60;99.90;;;;;;5091831;28;20214;-70
2021/07/18 04:44:32;;;;;;;6.85;6.25;;;18.60;99.90;;;;;;5091947;28;20209;-68
2021/07/18 04:47:00;;;;;;;5.80;5.30;;;18.70;99.90;;;;;;5091286;28;20202;-70
2021/07/18 04:49:28;;;;;;;7.05;6.45;;;18.70;99.90;;;;;;5091622;28;20205;-69
2021/07/18 04:51:56;;;;;;;6.85;6.13;;;18.80;99.90;;;;;;5091067;28;20660;-69
2021/07/18 04:54:23;;;;;;;5.90;5.30;;;18.80;99.90;;;;;;5091714;28;20254;-68
2021/07/18 04:56:51;;;;;;;6.55;6.05;;;18.80;99.90;;;;;;5090781;28;20205;-70
2021/07/18 04:59:18;;;;;;;6.93;6.22;;;18.80;99.90;;;;;;5091294;28;20205;-70
2021/07/18 05:01:46;;;;;;;6.40;5.85;;;18.70;99.90;;;;;;5090859;28;20201;-69
2021/07/18 05:04:12;;;;;;;6.40;5.80;;;18.70;99.90;;;;;;5090948;28;20627;-70
2021/07/18 05:06:41;;;;;;;7.13;6.47;;;18.70;99.90;;;;;;5090723;28;20206;-69
2021/07/18 05:09:08;;;;;;;11.02;6.75;;;18.70;99.90;;;;;;5090988;28;20209;-69
2021/07/18 05:11:35;;;;;;;7.88;6.78;;;18.70;99.90;;;;;;5091309;28;20790;-69
2021/07/18 05:14:02;;;;;;;5.97;5.38;;;18.80;99.90;;;;;;5091644;28;20258;-69
2021/07/18 05:16:30;;;;;;;6.55;5.88;;;18.80;99.90;;;;;;5091000;28;20210;-69
2021/07/18 05:18:57;;;;;;;8.32;5.63;;;18.80;99.90;;;;;;5090922;28;20308;-69
2021/07/18 05:21:24;;;;;;;5.82;5.28;;;18.80;99.90;;;;;;5090689;28;20205;-69
2021/07/18 05:23:52;;;;;;;6.88;6.07;;;18.90;99.90;;;;;;5090287;28;20925;-69
2021/07/18 05:26:19;;;;;;;7.45;5.80;;;19.00;99.90;;;;;;5090780;28;20217;-69
2021/07/18 05:28:46;;;;;;;9.65;6.43;;;18.90;99.90;;;;;;5089673;28;20197;-70
2021/07/18 05:31:13;;;;;;;6.53;5.88;;;18.90;99.90;;;;;;5090849;28;20229;-69
2021/07/18 05:33:40;;;;;;;9.65;6.45;;;18.90;99.90;;;;;;5090509;28;20247;-70
2021/07/18 05:36:11;;;;;;;6.88;6.28;;;19.00;99.90;;;;;;5091087;28;20213;-70
2021/07/18 05:38:38;;;;;;;6.28;5.68;;;18.90;99.90;;;;;;5090285;28;20223;-70
2021/07/18 05:41:06;;;;;;;6.72;5.45;;;19.00;99.90;;;;;;5091292;28;20206;-70
2021/07/18 05:43:33;;;;;;;8.32;6.75;;;18.90;99.90;;;;;;5091016;28;20239;-69
2021/07/18 05:46:00;;;;;;;6.90;6.25;;;19.00;99.90;;;;;;5091217;28;20205;-70
2021/07/18 05:48:27;;;;;;;7.22;6.53;;;19.10;99.90;;;;;;5090989;28;20209;-70
2021/07/18 05:50:54;;;;;;;7.45;6.70;;;19.20;99.90;;;;;;5090022;28;20233;-69
2021/07/18 05:53:21;;;;;;;6.93;6.22;;;19.20;99.90;;;;;;5090417;28;20205;-69
2021/07/18 05:55:49;;;;;;;9.10;6.57;;;19.10;99.90;;;;;;5090164;28;20202;-70
2021/07/18 05:58:17;;;;;;;6.47;5.90;;;19.10;99.90;;;;;;5090542;28;20232;-70
2021/07/18 06:00:44;;;;;;;7.43;6.72;;;19.10;99.90;;;;;;5090330;28;20201;-70
2021/07/18 06:03:11;;;;;;;7.88;5.85;;;19.20;99.90;;;;;;5090702;28;20541;-70
2021/07/18 06:05:39;;;;;;;6.53;5.93;;;19.30;99.90;;;;;;5090070;28;20209;-71
2021/07/18 06:08:06;;;;;;;9.60;6.35;;;19.40;99.90;;;;;;5090249;28;20208;-69
2021/07/18 06:10:33;;;;;;;6.97;6.03;;;19.40;99.90;;;;;;5090776;28;20233;-70
2021/07/18 06:13:00;;;;;;;6.38;5.68;;;19.60;99.90;;;;;;5089785;28;20263;-70
2021/07/18 06:15:29;;;;;;;7.55;6.53;;;19.70;99.90;;;;;;5090760;28;20214;-70
2021/07/18 06:17:56;;;;;;;6.10;5.60;;;19.90;99.90;;;;;;5089896;28;20628;-71
2021/07/18 06:20:23;;;;;;;7.05;6.45;;;19.90;99.90;;;;;;5090359;28;20210;-71
2021/07/18 06:22:51;;;;;;;5.97;5.47;;;19.90;99.90;;;;;;5089630;28;20628;-70
2021/07/18 06:25:18;;;;;;;6.68;6.07;;;19.90;99.90;;;;;;5090050;28;20214;-69
2021/07/18 06:27:46;;;;;;;6.57;5.97;;;20.00;99.90;;;;;;5087501;28;20259;-71
2021/07/18 06:30:15;;;;;;;5.88;5.38;;;20.10;99.90;;;;;;5074334;28;20267;-69
2021/07/18 06:32:43;;;;;;;6.50;5.85;;;20.20;99.90;;;;;;5069431;28;20715;-68
2021/07/18 06:35:11;;;;;;;6.85;6.25;;;20.20;99.90;;;;;;5070072;28;20198;-69
2021/07/18 06:37:39;;;;;;;7.63;6.47;;;20.30;99.90;;;;;;5069138;28;20260;-71
2021/07/18 06:40:07;;;;;;;6.85;6.25;;;20.30;99.90;;;;;;5071700;28;20569;-71
2021/07/18 06:42:34;;;;;;;6.13;5.57;;;20.40;99.90;;;;;;5067109;28;20210;-72
2021/07/18 06:45:02;;;;;;;5.75;5.28;;;20.50;99.90;;;;;;5073691;28;20605;-71
2021/07/18 06:47:29;;;;;;;6.35;5.82;;;20.60;99.90;;;;;;5073438;28;20206;-72
2021/07/18 06:49:57;;;;;;;6.63;5.47;;;20.70;99.90;;;;;;5073187;28;20263;-73
2021/07/18 06:52:25;;;;;;;7.07;6.38;;;20.80;99.90;;;;;;5073048;28;20335;-72
2021/07/18 06:54:52;;;;;;;6.93;6.22;;;20.90;99.90;;;;;;5073204;28;20210;-72
2021/07/18 06:57:19;;;;;;;7.13;6.10;;;20.90;99.90;;;;;;5073432;28;20264;-72
2021/07/18 06:59:47;;;;;;;7.00;5.57;;;20.90;99.90;;;;;;5072884;28;20740;-72
2021/07/18 07:02:14;;;;;;;6.05;5.45;;;21.10;99.90;;;;;;5073414;28;20208;-72
2021/07/18 07:04:41;;;;;;;6.47;5.78;;;21.20;99.90;;;;;;5072897;28;20279;-72
2021/07/18 07:07:09;;;;;;;7.03;6.32;;;21.30;99.90;;;;;;5072944;28;20252;-72
2021/07/18 07:09:36;;;;;;;6.22;5.65;;;21.30;99.90;;;;;;5072900;28;20252;-72
2021/07/18 07:12:04;;;;;;;6.75;5.90;;;21.40;99.90;;;;;;5072988;28;20343;-71
2021/07/18 07:14:31;;;;;;;6.75;6.05;;;21.40;99.90;;;;;;5071908;28;20205;-69
2021/07/18 07:16:58;;;;;;;6.38;5.88;;;21.50;99.90;;;;;;5072492;28;20264;-69
2021/07/18 07:19:25;;;;;;;6.32;5.72;;;21.50;99.90;;;;;;5081400;28;20202;-70
2021/07/18 07:21:52;;;;;;;6.68;5.93;;;21.60;99.90;;;;;;5083734;28;20263;-69
2021/07/18 07:24:20;;;;;;;6.55;5.95;;;21.70;99.90;;;;;;5083102;28;20206;-70
2021/07/18 07:26:47;;;;;;;6.82;6.13;;;21.90;99.90;;;;;;5073980;28;20247;-71
2021/07/18 07:29:14;;;;;;;6.20;5.70;;;22.00;99.90;;;;;;5074100;28;20620;-69
2021/07/18 07:31:41;;;;;;;7.25;5.25;;;22.10;99.90;;;;;;5073055;28;20229;-71
2021/07/18 07:34:08;;;;;;;10.30;5.72;;;22.20;99.90;;;;;;5074239;28;20206;-71
2021/07/18 07:36:35;;;;;;;5.57;5.05;;;22.30;99.90;;;;;;5076369;28;20279;-71
2021/07/18 07:39:02;;;;;;;6.05;5.55;;;22.40;99.90;;;;;;5075886;28;20636;-71
2021/07/18 07:41:31;;;;;;;6.50;5.75;;;22.50;99.90;;;;;;5075412;28;20210;-71
2021/07/18 07:43:59;;;;;;;5.50;5.03;;;22.70;99.90;;;;;;5072243;28;20203;-71
2021/07/18 07:46:27;;;;;;;5.88;5.28;;;22.80;99.90;;;;;;5072713;28;20238;-71
2021/07/18 07:48:54;;;;;;;6.47;5.30;;;23.00;99.90;;;;;;5071455;28;20662;-71
2021/07/18 07:51:22;;;;;;;5.35;4.85;;;23.10;99.90;;;;;;5071591;28;20233;-73
2021/07/18 07:53:50;;;;;;;7.57;6.25;;;23.20;99.90;;;;;;5071601;28;20677;-72
2021/07/18 07:56:17;;;;;;;5.60;5.10;;;23.20;99.90;;;;;;5072435;28;20237;-72
2021/07/18 07:58:45;;;;;;;6.05;5.50;;;23.30;99.90;;;;;;5074792;28;20210;-72
2021/07/18 08:01:12;;;;;;;6.82;5.13;;;23.40;99.90;;;;;;5072142;28;20202;-72
2021/07/18 08:03:39;;;;;;;9.00;5.32;;;23.60;99.90;;;;;;5071812;28;20206;-72
2021/07/18 08:06:06;;;;;;;5.38;4.97;;;23.60;99.90;;;;;;5076519;28;20202;-72
2021/07/18 08:08:33;;;;;;;6.30;5.53;;;23.80;99.90;;;;;;5087111;28;20259;-71
2021/07/18 08:11:00;;;;;;;6.05;5.55;;;24.20;99.90;;;;;;5080592;28;20241;-71
2021/07/18 08:13:27;;;;;;;5.20;4.75;;;24.80;99.90;;;;;;5079897;28;20259;-72
2021/07/18 08:15:56;;;;;;;5.28;4.80;;;25.30;99.90;;;;;;5076590;28;20205;-72
2021/07/18 08:18:23;;;;;;;4.90;4.55;;;25.90;99.90;;;;;;5071495;28;20754;-72
2021/07/18 08:20:50;;;;;;;4.70;4.30;;;25.50;99.90;;;;;;5071205;28;20255;-72
2021/07/18 08:23:16;;;;;;;5.47;4.90;;;25.20;99.90;;;;;;5087473;28;20228;-72
2021/07/18 08:25:43;;;;;;;5.43;4.65;;;25.30;99.90;;;;;;5091613;28;20213;-72
2021/07/18 08:28:10;;;;;;;4.80;4.40;;;25.10;99.90;;;;;;5091937;28;20598;-72
2021/07/18 08:30:39;;;;;;;5.25;4.75;;;25.00;99.90;;;;;;5091626;28;20232;-72
2021/07/18 08:33:07;;;;;;;5.63;5.13;;;24.90;99.90;;;;;;5092118;28;20263;-72
2021/07/18 08:35:34;;;;;;;6.13;5.53;;;25.10;99.90;;;;;;5092178;28;20282;-72
2021/07/18 08:38:01;;;;;;;4.82;4.40;;;25.70;99.90;;;;;;5092154;28;20201;-72
2021/07/18 08:40:30;;;;;;;5.57;5.07;;;25.60;99.90;;;;;;5091706;28;20202;-73
2021/07/18 08:42:58;;;;;;;6.80;5.22;;;25.60;99.90;;;;;;5075521;28;20673;-70
2021/07/18 08:45:25;;;;;;;5.72;5.32;;;26.00;99.90;;;;;;5072180;28;20210;-71
2021/07/18 08:47:52;;;;;;;4.97;4.47;;;27.30;99.90;;;;;;5071909;28;20203;-72
2021/07/18 08:50:20;;;;;;;6.05;5.47;;;27.00;99.90;;;;;;5074384;28;20256;-70
2021/07/18 08:52:52;;;;;;;4.70;4.30;;;27.00;99.90;;;;;;5070832;28;20238;-72
2021/07/18 08:55:20;;;;;;;5.68;5.28;;;28.00;99.90;;;;;;5075425;28;20202;-75
2021/07/18 08:57:47;;;;;;;6.00;5.45;;;28.00;99.90;;;;;;5074493;28;20285;-71
2021/07/18 09:00:15;;;;;;;6.30;5.47;;;27.30;99.90;;;;;;5070735;28;20288;-74
2021/07/18 09:02:42;;;;;;;7.05;5.53;;;27.10;99.90;;;;;;5068000;28;20320;-74
2021/07/18 09:05:10;;;;;;;5.53;5.03;;;27.30;99.90;;;;;;5072919;28;20202;-72
2021/07/18 09:07:46;;;;;;;5.65;5.03;;;28.10;99.90;;;;;;5076377;28;20580;-73
2021/07/18 09:10:14;;;;;;;7.03;4.63;;;28.20;99.90;;;;;;5074375;28;20761;-72
2021/07/18 09:12:42;;;;;;;6.03;5.43;;;27.00;99.90;;;;;;5066434;28;20609;-72
2021/07/18 09:15:10;;;;;;;4.57;4.15;;;27.00;99.90;;;;;;5074459;28;20739;-75
2021/07/18 09:17:39;;;;;;;5.45;4.93;;;27.20;99.90;;;;;;5070150;28;20290;-70
2021/07/18 09:20:16;;;;;;;4.38;4.07;;;27.30;99.90;;;;;;5070878;28;20251;-69
2021/07/18 09:22:45;;;;;;;5.40;4.25;;;26.80;99.90;;;;;;5072034;28;20264;-75
2021/07/18 09:25:12;;;;;;;5.43;4.95;;;27.00;99.90;;;;;;5086769;28;20638;-74
2021/07/18 09:27:40;;;;;;;4.60;4.30;;;27.20;99.90;;;;;;5074489;28;20260;-74
2021/07/18 09:30:09;;;;;;;5.22;4.75;;;27.30;99.90;;;;;;5074286;28;20267;-70
2021/07/18 09:32:38;;;;;;;5.15;4.75;;;27.40;99.90;;;;;;5090634;28;20252;-69
2021/07/18 09:35:08;;;;;;;6.20;5.70;;;27.40;99.90;;;;;;5090882;28;20213;-74
2021/07/18 09:37:38;;;;;;;5.47;5.05;;;27.60;99.90;;;;;;5091208;28;20255;-74
2021/07/18 09:40:09;;;;;;;5.30;4.38;;;27.80;99.90;;;;;;5091322;28;20361;-72
2021/07/18 09:42:42;;;;;;;5.03;4.63;;;27.90;99.90;;;;;;5090318;28;20202;-73
2021/07/18 09:45:16;;;;;;;4.15;3.88;;;28.40;99.90;;;;;;5090601;28;20208;-74
2021/07/18 09:48:01;;;;;;;4.43;4.13;;;28.30;99.90;;;;;;5090413;28;20259;-74
2021/07/18 09:50:31;;;;;;;5.15;4.03;;;28.70;99.90;;;;;;5073968;28;20251;-74
2021/07/18 09:53:14;;;;;;;5.78;4.50;;;28.80;99.90;;;;;;5069238;28;20217;-73
2021/07/18 09:55:57;;;;;;;4.80;4.50;;;29.40;99.90;;;;;;5069205;28;20734;-73
2021/07/18 09:58:24;;;;;;;4.63;4.18;;;31.20;99.90;;;;;;5070307;28;20559;-74
2021/07/18 10:00:52;;;;;;;4.93;4.15;;;33.20;99.90;;;;;;5069604;28;20262;-71
2021/07/18 10:03:22;;;;;;;4.13;3.83;;;36.30;99.90;;;;;;5070195;28;20618;-72
2021/07/18 10:06:05;;;;;;;4.40;4.10;;;32.30;99.90;;;;;;5069712;28;20220;-70
2021/07/18 10:08:33;;;;;;;4.32;3.97;;;32.80;99.90;;;;;;5070256;28;20202;-69
2021/07/18 10:11:02;;;;;;;4.63;4.30;;;36.30;99.90;;;;;;5068966;28;20201;-72
2021/07/18 10:13:30;;;;;;;3.85;3.55;;;36.10;99.90;;;;;;5070326;28;20620;-73
2021/07/18 10:15:57;;;;;;;4.72;3.50;;;38.30;99.90;;;;;;5072546;28;20743;-71
2021/07/18 10:18:25;;;;;;;11.20;7.93;;;39.20;99.90;;;;;;5076391;28;20280;-73
2021/07/18 10:20:51;;;;;;;4.93;4.57;;;40.20;99.90;;;;;;5090420;28;20197;-68
2021/07/18 10:23:19;;;;;;;4.43;4.10;;;40.10;99.90;;;;;;5089160;28;20253;-70
2021/07/18 10:25:47;;;;;;;3.92;3.58;;;40.30;99.90;;;;;;5073628;28;20213;-74
2021/07/18 10:28:17;;;;;;;6.25;5.70;;;40.60;99.90;;;;;;5073826;28;20716;-73
2021/07/18 10:30:48;;;;;;;6.78;6.15;;;40.20;99.90;;;;;;5082853;28;20240;-73
2021/07/18 10:33:19;;;;;;;9.30;8.43;;;40.20;99.90;;;;;;5078574;28;20293;-73
2021/07/18 10:35:47;;;;;;;11.52;8.05;;;40.00;99.90;;;;;;5083618;28;20604;-73
2021/07/18 10:38:16;;;;;;;4.50;4.10;;;39.80;99.90;;;;;;5081286;28;20198;-70
2021/07/18 10:40:48;;;;;;;3.67;3.38;;;38.20;99.90;;;;;;5073405;28;20293;-72
2021/07/18 10:43:35;;;;;;;3.90;3.55;;;33.40;99.90;;;;;;5073610;28;20213;-70
2021/07/18 10:46:02;;;;;;;4.55;4.15;;;30.90;99.90;;;;;;5065785;28;20205;-71
2021/07/18 10:48:45;;;;;;;5.28;4.60;;;29.70;99.90;;;;;;5073446;28;20271;-71
2021/07/18 10:51:12;;;;;;;5.30;4.90;;;28.80;99.90;;;;;;5065963;28;20247;-69
2021/07/18 10:53:40;;;;;;;4.78;4.38;;;28.80;99.90;;;;;;5073062;28;20210;-71
2021/07/18 10:56:07;;;;;;;4.68;4.28;;;28.70;99.90;;;;;;5073399;28;20255;-73
2021/07/18 10:58:47;;;;;;;5.15;4.55;;;28.60;99.90;;;;;;5073606;28;20203;-72
2021/07/18 11:01:47;;;;;;;5.90;5.40;;;28.70;99.90;;;;;;5073394;28;20292;-71
2021/07/18 11:04:40;;;;;;;4.65;4.35;;;28.90;99.90;;;;;;5073259;28;20209;-72
2021/07/18 11:07:29;;;;;;;5.43;4.97;;;29.00;99.90;;;;;;5073142;28;20284;-68
2021/07/18 11:09:58;;;;;;;6.05;4.55;;;29.00;99.90;;;;;;5063998;28;20725;-71
2021/07/18 11:12:27;;;;;;;6.18;5.57;;;29.20;99.90;;;;;;5072332;28;20230;-70
2021/07/18 11:15:22;;;;;;;5.00;4.60;;;29.40;99.90;;;;;;5065111;28;20198;-70
2021/07/18 11:18:01;;;;;;;5.07;4.68;;;29.40;99.90;;;;;;5072562;28;20677;-72
2021/07/18 11:20:55;;;;;;;6.32;4.60;;;29.00;99.90;;;;;;5073045;28;20210;-71
2021/07/18 11:23:34;;;;;;;4.88;4.50;;;29.30;99.90;;;;;;5079609;28;20300;-70
2021/07/18 11:26:15;;;;;;;5.13;4.63;;;28.70;99.90;;;;;;5092291;28;20217;-72
2021/07/18 11:29:07;;;;;;;5.28;4.88;;;28.60;99.90;;;;;;5092598;28;20251;-72
2021/07/18 11:31:46;;;;;;;5.68;4.53;;;29.40;99.90;;;;;;5093228;28;20206;-74
2021/07/18 11:34:18;;;;;;;6.30;4.20;;;30.20;99.90;;;;;;5077801;28;20726;-71
2021/07/18 11:37:05;;;;;;;4.75;4.45;;;30.50;99.90;;;;;;5092530;28;20263;-74
2021/07/18 11:39:34;;;;;;;5.03;4.63;;;29.90;99.90;;;;;;5093307;28;20212;-72
2021/07/18 11:42:09;;;;;;;5.68;4.70;;;29.40;99.90;;;;;;5092918;28;20217;-71
2021/07/18 11:44:39;;;;;;;5.47;4.95;;;29.60;99.90;;;;;;5083597;28;20247;-69
2021/07/18 11:47:09;;;;;;;5.10;4.65;;;29.70;99.90;;;;;;5072866;28;20587;-71
2021/07/18 11:49:39;;;;;;;5.93;5.18;;;29.70;99.90;;;;;;5071225;28;20247;-69
2021/07/18 11:52:08;;;;;;;6.22;4.93;;;29.90;99.90;;;;;;5076930;28;20249;-73
2021/07/18 11:54:35;;;;;;;5.65;5.25;;;30.00;99.90;;;;;;5078299;28;20206;-72
2021/07/18 11:57:06;;;;;;;5.55;5.10;;;29.90;99.90;;;;;;5083332;28;20262;-70
2021/07/18 11:59:34;;;;;;;5.40;4.95;;;30.00;99.90;;;;;;5078436;28;20221;-71
2021/07/18 12:02:01;;;;;;;5.97;5.47;;;29.80;99.90;;;;;;5077670;28;20229;-71
2021/07/18 12:04:30;;;;;;;5.45;5.05;;;29.60;99.90;;;;;;5073517;28;20209;-69
2021/07/18 12:06:59;;;;;;;8.70;6.32;;;29.70;99.90;;;;;;5064557;28;20202;-74
2021/07/18 12:09:28;;;;;;;5.47;4.97;;;29.80;99.90;;;;;;5068168;28;20210;-71
2021/07/18 12:11:57;;;;;;;5.95;5.45;;;29.30;99.90;;;;;;5071397;28;20222;-74
2021/07/18 12:14:25;;;;;;;6.25;5.72;;;29.30;99.90;;;;;;5071709;28;20727;-73
2021/07/18 12:16:54;;;;;;;6.10;5.30;;;29.50;99.90;;;;;;5071583;28;20255;-72
2021/07/18 12:19:25;;;;;;;6.05;5.55;;;29.30;99.90;;;;;;5071486;28;20206;-70
2021/07/18 12:21:56;;;;;;;8.70;6.20;;;29.50;99.90;;;;;;5075357;28;20646;-71
2021/07/18 12:24:28;;;;;;;6.90;5.93;;;30.20;99.90;;;;;;5091851;28;20354;-73
2021/07/18 12:27:05;;;;;;;5.70;5.20;;;30.40;99.90;;;;;;5091517;28;20262;-74
2021/07/18 12:29:34;;;;;;;7.68;6.43;;;29.70;99.90;;;;;;5092545;28;20266;-70
2021/07/18 12:32:02;;;;;;;6.28;5.68;;;29.40;99.90;;;;;;5091851;28;20229;-72
2021/07/18 12:34:32;;;;;;;6.30;5.70;;;29.20;99.90;;;;;;5092048;28;20665;-73
2021/07/18 12:37:02;;;;;;;6.50;5.90;;;28.80;99.90;;;;;;5091264;28;20263;-72
2021/07/18 12:39:31;;;;;;;6.13;5.63;;;28.90;99.90;;;;;;5091675;28;20673;-70
2021/07/18 12:41:59;;;;;;;6.53;6.03;;;29.20;99.90;;;;;;5091602;28;20229;-73
2021/07/18 12:44:28;;;;;;;7.03;6.50;;;29.40;99.90;;;;;;5091783;28;20258;-71
2021/07/18 12:47:31;;;;;;;6.70;6.07;;;29.20;99.90;;;;;;5091188;28;20209;-72
2021/07/18 12:50:28;;;;;;;6.32;5.72;;;29.10;99.90;;;;;;5091338;28;20254;-74
2021/07/18 12:53:07;;;;;;;6.70;5.93;;;29.50;99.90;;;;;;5061440;28;20325;-75
2021/07/18 12:55:38;;;;;;;6.85;6.35;;;29.50;99.90;;;;;;5091951;28;20266;-74